sensor_id;sensor_type;location;lat;lon;timestamp;P1;durP1;ratioP1;P2;durP2;ratioP2
52708;SDS011;38606;52.986;6.980;2022-12-13T00:00:40;69.57;;;26.48;;
52708;SDS011;38606;52.986;6.980;2022-12-13T00:03:06;67.57;;;27.35;;
52708;SDS011;38606;52.986;6.980;2022-12-13T00:05:32;78.75;;;30.30;;
52708;SDS011;38606;52.986;6.980;2022-12-13T00:07:59;87.38;;;31.98;;
52708;SDS011;38606;52.986;6.980;2022-12-13T00:10:25;92.03;;;32.70;;
52708;SDS011;38606;52.986;6.980;2022-12-13T00:12:51;92.93;;;33.38;;
52708;SDS011;38606;52.986;6.980;2022-12-13T00:15:17;94.97;;;34.03;;
52708;SDS011;38606;52.986;6.980;2022-12-13T00:17:43;86.68;;;32.97;;
52708;SDS011;38606;52.986;6.980;2022-12-13T00:20:10;87.53;;;33.30;;
52708;SDS011;38606;52.986;6.980;2022-12-13T00:22:36;94.95;;;33.47;;
52708;SDS011;38606;52.986;6.980;2022-12-13T00:25:02;96.00;;;33.75;;
52708;SDS011;38606;52.986;6.980;2022-12-13T00:27:29;94.93;;;34.15;;
52708;SDS011;38606;52.986;6.980;2022-12-13T00:29:55;111.07;;;36.95;;
52708;SDS011;38606;52.986;6.980;2022-12-13T00:32:21;107.22;;;37.50;;
52708;SDS011;38606;52.986;6.980;2022-12-13T00:34:47;109.88;;;36.45;;
52708;SDS011;38606;52.986;6.980;2022-12-13T00:37:13;99.85;;;34.10;;
52708;SDS011;38606;52.986;6.980;2022-12-13T00:39:39;102.95;;;36.03;;
52708;SDS011;38606;52.986;6.980;2022-12-13T00:42:05;101.13;;;34.60;;
52708;SDS011;38606;52.986;6.980;2022-12-13T00:44:31;97.80;;;33.83;;
52708;SDS011;38606;52.986;6.980;2022-12-13T00:46:57;100.70;;;35.92;;
52708;SDS011;38606;52.986;6.980;2022-12-13T00:49:23;105.45;;;33.88;;
52708;SDS011;38606;52.986;6.980;2022-12-13T00:51:49;93.32;;;34.60;;
52708;SDS011;38606;52.986;6.980;2022-12-13T00:54:15;97.25;;;34.15;;
52708;SDS011;38606;52.986;6.980;2022-12-13T00:56:41;91.50;;;32.05;;
52708;SDS011;38606;52.986;6.980;2022-12-13T00:59:08;99.72;;;33.17;;
52708;SDS011;38606;52.986;6.980;2022-12-13T01:01:37;89.80;;;34.13;;
52708;SDS011;38606;52.986;6.980;2022-12-13T01:04:04;87.80;;;33.25;;
52708;SDS011;38606;52.986;6.980;2022-12-13T01:09:05;84.10;;;32.38;;
52708;SDS011;38606;52.986;6.980;2022-12-13T01:11:34;85.00;;;32.90;;
52708;SDS011;38606;52.986;6.980;2022-12-13T01:14:00;78.78;;;30.77;;
52708;SDS011;38606;52.986;6.980;2022-12-13T01:16:26;83.20;;;32.28;;
52708;SDS011;38606;52.986;6.980;2022-12-13T01:18:52;80.63;;;31.63;;
52708;SDS011;38606;52.986;6.980;2022-12-13T01:21:18;75.57;;;29.80;;
52708;SDS011;38606;52.986;6.980;2022-12-13T01:23:45;76.72;;;30.52;;
52708;SDS011;38606;52.986;6.980;2022-12-13T01:26:13;77.82;;;29.98;;
52708;SDS011;38606;52.986;6.980;2022-12-13T01:28:43;72.75;;;29.25;;
52708;SDS011;38606;52.986;6.980;2022-12-13T01:31:10;73.47;;;30.73;;
52708;SDS011;38606;52.986;6.980;2022-12-13T01:33:38;78.78;;;28.63;;
52708;SDS011;38606;52.986;6.980;2022-12-13T01:36:06;77.38;;;29.13;;
52708;SDS011;38606;52.986;6.980;2022-12-13T01:38:33;78.53;;;29.23;;
52708;SDS011;38606;52.986;6.980;2022-12-13T01:40:59;75.78;;;30.63;;
52708;SDS011;38606;52.986;6.980;2022-12-13T01:43:48;75.35;;;29.05;;
52708;SDS011;38606;52.986;6.980;2022-12-13T01:46:16;74.25;;;28.67;;
52708;SDS011;38606;52.986;6.980;2022-12-13T01:51:39;72.95;;;29.10;;
52708;SDS011;38606;52.986;6.980;2022-12-13T01:54:10;70.28;;;28.90;;
52708;SDS011;38606;52.986;6.980;2022-12-13T01:56:40;70.07;;;27.35;;
52708;SDS011;38606;52.986;6.980;2022-12-13T01:59:09;74.55;;;28.10;;
52708;SDS011;38606;52.986;6.980;2022-12-13T02:01:36;78.53;;;29.92;;
52708;SDS011;38606;52.986;6.980;2022-12-13T02:04:03;69.63;;;27.92;;
52708;SDS011;38606;52.986;6.980;2022-12-13T02:06:37;72.05;;;30.27;;
52708;SDS011;38606;52.986;6.980;2022-12-13T02:09:07;68.47;;;28.42;;
52708;SDS011;38606;52.986;6.980;2022-12-13T02:11:34;73.35;;;28.05;;
52708;SDS011;38606;52.986;6.980;2022-12-13T02:14:02;74.95;;;27.45;;
52708;SDS011;38606;52.986;6.980;2022-12-13T02:25:12;70.60;;;28.02;;
52708;SDS011;38606;52.986;6.980;2022-12-13T02:27:49;65.53;;;26.58;;
52708;SDS011;38606;52.986;6.980;2022-12-13T02:30:37;72.00;;;27.25;;
52708;SDS011;38606;52.986;6.980;2022-12-13T02:41:28;64.45;;;26.40;;
52708;SDS011;38606;52.986;6.980;2022-12-13T02:46:33;69.38;;;28.38;;
52708;SDS011;38606;52.986;6.980;2022-12-13T02:49:03;68.53;;;26.52;;
52708;SDS011;38606;52.986;6.980;2022-12-13T02:51:30;68.68;;;26.40;;
52708;SDS011;38606;52.986;6.980;2022-12-13T02:53:57;69.72;;;27.23;;
52708;SDS011;38606;52.986;6.980;2022-12-13T02:56:22;65.28;;;26.42;;
52708;SDS011;38606;52.986;6.980;2022-12-13T02:58:50;61.13;;;26.23;;
52708;SDS011;38606;52.986;6.980;2022-12-13T03:01:20;68.50;;;28.02;;
52708;SDS011;38606;52.986;6.980;2022-12-13T03:06:28;68.43;;;28.27;;
52708;SDS011;38606;52.986;6.980;2022-12-13T03:14:24;70.20;;;27.40;;
52708;SDS011;38606;52.986;6.980;2022-12-13T03:16:50;70.55;;;27.50;;
52708;SDS011;38606;52.986;6.980;2022-12-13T03:19:19;66.95;;;26.67;;
52708;SDS011;38606;52.986;6.980;2022-12-13T03:21:45;71.35;;;27.85;;
52708;SDS011;38606;52.986;6.980;2022-12-13T03:24:13;75.25;;;27.33;;
52708;SDS011;38606;52.986;6.980;2022-12-13T03:26:41;70.82;;;28.63;;
52708;SDS011;38606;52.986;6.980;2022-12-13T03:29:07;75.22;;;28.65;;
52708;SDS011;38606;52.986;6.980;2022-12-13T03:31:33;70.90;;;28.45;;
52708;SDS011;38606;52.986;6.980;2022-12-13T03:33:59;67.82;;;28.05;;
52708;SDS011;38606;52.986;6.980;2022-12-13T03:36:25;74.40;;;29.27;;
52708;SDS011;38606;52.986;6.980;2022-12-13T03:38:52;74.13;;;28.70;;
52708;SDS011;38606;52.986;6.980;2022-12-13T03:41:20;75.53;;;28.40;;
52708;SDS011;38606;52.986;6.980;2022-12-13T03:43:48;70.18;;;28.05;;
52708;SDS011;38606;52.986;6.980;2022-12-13T03:46:14;74.10;;;28.65;;
52708;SDS011;38606;52.986;6.980;2022-12-13T03:48:40;74.00;;;29.23;;
52708;SDS011;38606;52.986;6.980;2022-12-13T03:51:06;69.72;;;29.65;;
52708;SDS011;38606;52.986;6.980;2022-12-13T03:53:32;74.72;;;29.52;;
52708;SDS011;38606;52.986;6.980;2022-12-13T03:55:59;71.85;;;28.55;;
52708;SDS011;38606;52.986;6.980;2022-12-13T03:58:25;80.25;;;28.27;;
52708;SDS011;38606;52.986;6.980;2022-12-13T04:00:52;79.97;;;30.27;;
52708;SDS011;38606;52.986;6.980;2022-12-13T04:03:18;79.13;;;29.05;;
52708;SDS011;38606;52.986;6.980;2022-12-13T04:05:44;77.13;;;30.52;;
52708;SDS011;38606;52.986;6.980;2022-12-13T04:08:10;76.18;;;28.45;;
52708;SDS011;38606;52.986;6.980;2022-12-13T04:10:36;67.32;;;27.77;;
52708;SDS011;38606;52.986;6.980;2022-12-13T04:13:02;80.47;;;29.80;;
52708;SDS011;38606;52.986;6.980;2022-12-13T04:15:46;80.30;;;30.60;;
52708;SDS011;38606;52.986;6.980;2022-12-13T04:18:19;75.85;;;31.08;;
52708;SDS011;38606;52.986;6.980;2022-12-13T04:20:45;81.75;;;29.25;;
52708;SDS011;38606;52.986;6.980;2022-12-13T04:23:11;76.80;;;29.05;;
52708;SDS011;38606;52.986;6.980;2022-12-13T04:25:37;79.10;;;29.02;;
52708;SDS011;38606;52.986;6.980;2022-12-13T04:28:06;78.70;;;30.67;;
52708;SDS011;38606;52.986;6.980;2022-12-13T04:30:33;76.22;;;28.90;;
52708;SDS011;38606;52.986;6.980;2022-12-13T04:32:59;79.43;;;30.35;;
52708;SDS011;38606;52.986;6.980;2022-12-13T04:35:25;69.07;;;27.48;;
52708;SDS011;38606;52.986;6.980;2022-12-13T04:37:51;81.15;;;29.90;;
52708;SDS011;38606;52.986;6.980;2022-12-13T04:40:17;74.38;;;30.55;;
52708;SDS011;38606;52.986;6.980;2022-12-13T04:42:43;71.60;;;27.98;;
52708;SDS011;38606;52.986;6.980;2022-12-13T04:45:16;71.30;;;28.83;;
52708;SDS011;38606;52.986;6.980;2022-12-13T04:47:42;80.13;;;31.05;;
52708;SDS011;38606;52.986;6.980;2022-12-13T04:50:08;83.55;;;31.73;;
52708;SDS011;38606;52.986;6.980;2022-12-13T04:52:34;79.90;;;30.30;;
52708;SDS011;38606;52.986;6.980;2022-12-13T04:55:01;89.13;;;31.27;;
52708;SDS011;38606;52.986;6.980;2022-12-13T04:57:27;79.90;;;31.15;;
52708;SDS011;38606;52.986;6.980;2022-12-13T04:59:53;77.60;;;30.15;;
52708;SDS011;38606;52.986;6.980;2022-12-13T05:02:19;77.57;;;30.55;;
52708;SDS011;38606;52.986;6.980;2022-12-13T05:04:45;81.40;;;31.83;;
52708;SDS011;38606;52.986;6.980;2022-12-13T05:07:11;91.35;;;32.95;;
52708;SDS011;38606;52.986;6.980;2022-12-13T05:09:37;83.22;;;31.33;;
52708;SDS011;38606;52.986;6.980;2022-12-13T05:12:03;91.88;;;34.20;;
52708;SDS011;38606;52.986;6.980;2022-12-13T05:14:30;88.28;;;31.20;;
52708;SDS011;38606;52.986;6.980;2022-12-13T05:16:56;87.90;;;32.05;;
52708;SDS011;38606;52.986;6.980;2022-12-13T05:19:22;89.68;;;33.30;;
52708;SDS011;38606;52.986;6.980;2022-12-13T05:21:48;106.97;;;34.67;;
52708;SDS011;38606;52.986;6.980;2022-12-13T05:24:14;97.82;;;34.22;;
52708;SDS011;38606;52.986;6.980;2022-12-13T05:26:40;100.05;;;36.67;;
52708;SDS011;38606;52.986;6.980;2022-12-13T05:29:06;117.07;;;37.78;;
52708;SDS011;38606;52.986;6.980;2022-12-13T05:31:32;112.43;;;36.55;;
52708;SDS011;38606;52.986;6.980;2022-12-13T05:33:58;104.50;;;35.85;;
52708;SDS011;38606;52.986;6.980;2022-12-13T05:36:24;109.03;;;35.13;;
52708;SDS011;38606;52.986;6.980;2022-12-13T05:38:50;115.57;;;36.95;;
52708;SDS011;38606;52.986;6.980;2022-12-13T05:41:17;114.25;;;34.83;;
52708;SDS011;38606;52.986;6.980;2022-12-13T05:43:47;95.28;;;34.33;;
52708;SDS011;38606;52.986;6.980;2022-12-13T05:46:13;101.80;;;33.60;;
52708;SDS011;38606;52.986;6.980;2022-12-13T05:48:39;92.03;;;34.10;;
52708;SDS011;38606;52.986;6.980;2022-12-13T05:51:06;110.25;;;33.28;;
52708;SDS011;38606;52.986;6.980;2022-12-13T05:53:32;112.22;;;34.75;;
52708;SDS011;38606;52.986;6.980;2022-12-13T05:55:58;92.40;;;32.47;;
52708;SDS011;38606;52.986;6.980;2022-12-13T05:58:25;103.25;;;35.75;;
52708;SDS011;38606;52.986;6.980;2022-12-13T06:00:51;134.30;;;34.50;;
52708;SDS011;38606;52.986;6.980;2022-12-13T06:03:17;93.78;;;33.92;;
52708;SDS011;38606;52.986;6.980;2022-12-13T06:05:43;126.50;;;35.70;;
52708;SDS011;38606;52.986;6.980;2022-12-13T06:08:09;86.07;;;33.10;;
52708;SDS011;38606;52.986;6.980;2022-12-13T06:10:35;94.97;;;36.22;;
52708;SDS011;38606;52.986;6.980;2022-12-13T06:13:02;127.43;;;37.47;;
52708;SDS011;38606;52.986;6.980;2022-12-13T06:15:28;108.40;;;36.20;;
52708;SDS011;38606;52.986;6.980;2022-12-13T06:17:57;100.38;;;34.85;;
52708;SDS011;38606;52.986;6.980;2022-12-13T06:20:23;130.10;;;36.15;;
52708;SDS011;38606;52.986;6.980;2022-12-13T06:22:50;102.35;;;34.20;;
52708;SDS011;38606;52.986;6.980;2022-12-13T06:25:16;132.32;;;36.65;;
52708;SDS011;38606;52.986;6.980;2022-12-13T06:27:42;99.70;;;35.70;;
52708;SDS011;38606;52.986;6.980;2022-12-13T06:30:09;107.18;;;35.47;;
52708;SDS011;38606;52.986;6.980;2022-12-13T06:32:35;107.90;;;33.55;;
52708;SDS011;38606;52.986;6.980;2022-12-13T06:35:01;98.18;;;32.88;;
52708;SDS011;38606;52.986;6.980;2022-12-13T06:37:27;138.25;;;34.70;;
52708;SDS011;38606;52.986;6.980;2022-12-13T06:39:53;104.88;;;34.35;;
52708;SDS011;38606;52.986;6.980;2022-12-13T06:42:19;73.90;;;31.20;;
52708;SDS011;38606;52.986;6.980;2022-12-13T06:44:45;93.88;;;31.38;;
52708;SDS011;38606;52.986;6.980;2022-12-13T06:47:11;199.30;;;33.97;;
52708;SDS011;38606;52.986;6.980;2022-12-13T06:49:38;84.38;;;30.73;;
52708;SDS011;38606;52.986;6.980;2022-12-13T06:52:05;87.57;;;30.85;;
52708;SDS011;38606;52.986;6.980;2022-12-13T06:54:33;114.78;;;31.08;;
52708;SDS011;38606;52.986;6.980;2022-12-13T06:57:00;160.90;;;31.88;;
52708;SDS011;38606;52.986;6.980;2022-12-13T06:59:26;73.47;;;29.83;;
52708;SDS011;38606;52.986;6.980;2022-12-13T07:01:52;83.60;;;31.10;;
52708;SDS011;38606;52.986;6.980;2022-12-13T07:04:18;155.63;;;34.05;;
52708;SDS011;38606;52.986;6.980;2022-12-13T07:06:43;92.30;;;33.85;;
52708;SDS011;38606;52.986;6.980;2022-12-13T07:09:09;122.18;;;32.97;;
52708;SDS011;38606;52.986;6.980;2022-12-13T07:11:35;101.13;;;32.70;;
52708;SDS011;38606;52.986;6.980;2022-12-13T07:14:01;88.40;;;30.65;;
52708;SDS011;38606;52.986;6.980;2022-12-13T07:16:27;87.95;;;32.50;;
52708;SDS011;38606;52.986;6.980;2022-12-13T07:18:57;106.18;;;32.95;;
52708;SDS011;38606;52.986;6.980;2022-12-13T07:21:24;84.00;;;31.63;;
52708;SDS011;38606;52.986;6.980;2022-12-13T07:23:50;104.57;;;32.80;;
52708;SDS011;38606;52.986;6.980;2022-12-13T07:26:16;102.65;;;30.42;;
52708;SDS011;38606;52.986;6.980;2022-12-13T07:28:42;74.78;;;31.58;;
52708;SDS011;38606;52.986;6.980;2022-12-13T07:31:09;76.95;;;30.67;;
52708;SDS011;38606;52.986;6.980;2022-12-13T07:33:35;85.70;;;31.05;;
52708;SDS011;38606;52.986;6.980;2022-12-13T07:36:02;85.68;;;31.33;;
52708;SDS011;38606;52.986;6.980;2022-12-13T07:38:50;82.35;;;29.67;;
52708;SDS011;38606;52.986;6.980;2022-12-13T07:41:17;85.30;;;30.00;;
52708;SDS011;38606;52.986;6.980;2022-12-13T07:43:44;91.43;;;30.05;;
52708;SDS011;38606;52.986;6.980;2022-12-13T07:46:10;93.97;;;28.45;;
52708;SDS011;38606;52.986;6.980;2022-12-13T07:48:36;85.07;;;27.30;;
52708;SDS011;38606;52.986;6.980;2022-12-13T07:51:03;88.85;;;30.45;;
52708;SDS011;38606;52.986;6.980;2022-12-13T07:53:31;84.25;;;28.45;;
52708;SDS011;38606;52.986;6.980;2022-12-13T07:56:05;105.47;;;28.85;;
52708;SDS011;38606;52.986;6.980;2022-12-13T07:58:32;90.78;;;28.58;;
52708;SDS011;38606;52.986;6.980;2022-12-13T08:00:59;89.68;;;27.00;;
52708;SDS011;38606;52.986;6.980;2022-12-13T08:03:27;91.65;;;27.25;;
52708;SDS011;38606;52.986;6.980;2022-12-13T08:05:57;78.30;;;27.85;;
52708;SDS011;38606;52.986;6.980;2022-12-13T08:08:33;83.18;;;28.52;;
52708;SDS011;38606;52.986;6.980;2022-12-13T08:10:59;67.25;;;27.45;;
52708;SDS011;38606;52.986;6.980;2022-12-13T08:13:28;90.60;;;29.83;;
52708;SDS011;38606;52.986;6.980;2022-12-13T08:16:02;75.35;;;27.95;;
52708;SDS011;38606;52.986;6.980;2022-12-13T08:18:30;74.07;;;28.30;;
52708;SDS011;38606;52.986;6.980;2022-12-13T08:20:57;70.75;;;28.48;;
52708;SDS011;38606;52.986;6.980;2022-12-13T08:23:24;96.32;;;29.23;;
52708;SDS011;38606;52.986;6.980;2022-12-13T08:25:53;77.57;;;28.00;;
52708;SDS011;38606;52.986;6.980;2022-12-13T08:28:19;87.93;;;30.90;;
52708;SDS011;38606;52.986;6.980;2022-12-13T08:30:46;77.78;;;28.90;;
52708;SDS011;38606;52.986;6.980;2022-12-13T08:33:12;70.03;;;28.88;;
52708;SDS011;38606;52.986;6.980;2022-12-13T08:35:38;99.25;;;27.33;;
52708;SDS011;38606;52.986;6.980;2022-12-13T08:38:04;67.97;;;25.98;;
52708;SDS011;38606;52.986;6.980;2022-12-13T08:40:30;85.57;;;28.48;;
52708;SDS011;38606;52.986;6.980;2022-12-13T08:42:56;76.53;;;27.70;;
52708;SDS011;38606;52.986;6.980;2022-12-13T08:45:22;85.75;;;27.63;;
52708;SDS011;38606;52.986;6.980;2022-12-13T08:47:48;96.47;;;29.63;;
52708;SDS011;38606;52.986;6.980;2022-12-13T08:50:14;77.93;;;28.20;;
52708;SDS011;38606;52.986;6.980;2022-12-13T08:52:40;74.43;;;28.20;;
52708;SDS011;38606;52.986;6.980;2022-12-13T08:55:09;92.00;;;28.30;;
52708;SDS011;38606;52.986;6.980;2022-12-13T08:57:36;93.10;;;28.73;;
52708;SDS011;38606;52.986;6.980;2022-12-13T09:00:06;95.15;;;30.13;;
52708;SDS011;38606;52.986;6.980;2022-12-13T09:02:35;107.47;;;28.38;;
52708;SDS011;38606;52.986;6.980;2022-12-13T09:05:01;110.82;;;30.65;;
52708;SDS011;38606;52.986;6.980;2022-12-13T09:07:27;89.93;;;29.88;;
52708;SDS011;38606;52.986;6.980;2022-12-13T09:09:53;107.03;;;29.17;;
52708;SDS011;38606;52.986;6.980;2022-12-13T09:12:19;81.65;;;29.00;;
52708;SDS011;38606;52.986;6.980;2022-12-13T09:14:45;87.90;;;29.95;;
52708;SDS011;38606;52.986;6.980;2022-12-13T09:17:12;125.28;;;35.83;;
52708;SDS011;38606;52.986;6.980;2022-12-13T09:19:39;104.85;;;34.17;;
52708;SDS011;38606;52.986;6.980;2022-12-13T09:22:06;114.63;;;33.38;;
52708;SDS011;38606;52.986;6.980;2022-12-13T09:24:32;113.38;;;34.28;;
52708;SDS011;38606;52.986;6.980;2022-12-13T09:26:58;128.27;;;31.65;;
52708;SDS011;38606;52.986;6.980;2022-12-13T09:29:24;97.72;;;30.88;;
52708;SDS011;38606;52.986;6.980;2022-12-13T09:31:50;84.85;;;31.80;;
52708;SDS011;38606;52.986;6.980;2022-12-13T09:34:16;82.45;;;30.80;;
52708;SDS011;38606;52.986;6.980;2022-12-13T09:36:42;80.30;;;31.13;;
52708;SDS011;38606;52.986;6.980;2022-12-13T09:39:08;81.40;;;31.88;;
52708;SDS011;38606;52.986;6.980;2022-12-13T09:41:45;84.28;;;31.55;;
52708;SDS011;38606;52.986;6.980;2022-12-13T09:44:22;83.80;;;32.10;;
52708;SDS011;38606;52.986;6.980;2022-12-13T09:46:51;86.68;;;32.83;;
52708;SDS011;38606;52.986;6.980;2022-12-13T09:51:46;80.88;;;31.58;;
52708;SDS011;38606;52.986;6.980;2022-12-13T09:54:22;86.35;;;33.38;;
52708;SDS011;38606;52.986;6.980;2022-12-13T09:56:50;83.45;;;31.77;;
52708;SDS011;38606;52.986;6.980;2022-12-13T09:59:31;88.78;;;34.35;;
52708;SDS011;38606;52.986;6.980;2022-12-13T10:02:06;84.72;;;33.47;;
52708;SDS011;38606;52.986;6.980;2022-12-13T10:04:40;84.35;;;33.22;;
52708;SDS011;38606;52.986;6.980;2022-12-13T10:07:11;89.78;;;35.20;;
52708;SDS011;38606;52.986;6.980;2022-12-13T10:09:42;81.72;;;34.95;;
52708;SDS011;38606;52.986;6.980;2022-12-13T10:12:09;75.28;;;31.50;;
52708;SDS011;38606;52.986;6.980;2022-12-13T10:14:39;93.85;;;35.33;;
52708;SDS011;38606;52.986;6.980;2022-12-13T10:17:12;83.55;;;33.28;;
52708;SDS011;38606;52.986;6.980;2022-12-13T10:19:43;88.53;;;32.72;;
52708;SDS011;38606;52.986;6.980;2022-12-13T10:22:11;87.13;;;32.13;;
52708;SDS011;38606;52.986;6.980;2022-12-13T10:24:51;93.65;;;34.17;;
52708;SDS011;38606;52.986;6.980;2022-12-13T10:27:41;82.70;;;31.85;;
52708;SDS011;38606;52.986;6.980;2022-12-13T10:35:33;88.32;;;34.03;;
52708;SDS011;38606;52.986;6.980;2022-12-13T10:40:38;91.28;;;35.35;;
52708;SDS011;38606;52.986;6.980;2022-12-13T10:45:33;84.80;;;35.05;;
52708;SDS011;38606;52.986;6.980;2022-12-13T10:47:59;79.38;;;33.42;;
52708;SDS011;38606;52.986;6.980;2022-12-13T10:50:26;81.57;;;33.92;;
52708;SDS011;38606;52.986;6.980;2022-12-13T10:52:54;86.95;;;34.70;;
52708;SDS011;38606;52.986;6.980;2022-12-13T10:55:32;89.18;;;34.22;;
52708;SDS011;38606;52.986;6.980;2022-12-13T10:58:05;89.68;;;34.92;;
52708;SDS011;38606;52.986;6.980;2022-12-13T11:00:42;83.37;;;34.57;;
52708;SDS011;38606;52.986;6.980;2022-12-13T11:06:25;75.32;;;31.42;;
52708;SDS011;38606;52.986;6.980;2022-12-13T11:08:52;80.70;;;33.22;;
52708;SDS011;38606;52.986;6.980;2022-12-13T11:11:26;83.32;;;35.13;;
52708;SDS011;38606;52.986;6.980;2022-12-13T11:13:55;77.88;;;34.45;;
52708;SDS011;38606;52.986;6.980;2022-12-13T11:16:31;80.65;;;33.92;;
52708;SDS011;38606;52.986;6.980;2022-12-13T11:19:04;76.07;;;32.95;;
52708;SDS011;38606;52.986;6.980;2022-12-13T11:21:39;75.95;;;34.03;;
52708;SDS011;38606;52.986;6.980;2022-12-13T11:24:17;76.05;;;32.25;;
52708;SDS011;38606;52.986;6.980;2022-12-13T11:26:52;69.72;;;31.08;;
52708;SDS011;38606;52.986;6.980;2022-12-13T11:29:37;76.72;;;33.42;;
52708;SDS011;38606;52.986;6.980;2022-12-13T11:34:57;76.68;;;33.53;;
52708;SDS011;38606;52.986;6.980;2022-12-13T11:40:31;55.50;;;24.43;;
52708;SDS011;38606;52.986;6.980;2022-12-13T11:43:20;69.15;;;31.10;;
52708;SDS011;38606;52.986;6.980;2022-12-13T11:46:01;75.53;;;32.67;;
52708;SDS011;38606;52.986;6.980;2022-12-13T11:48:52;73.30;;;32.75;;
52708;SDS011;38606;52.986;6.980;2022-12-13T11:51:26;73.78;;;33.05;;
52708;SDS011;38606;52.986;6.980;2022-12-13T11:54:02;70.75;;;32.80;;
52708;SDS011;38606;52.986;6.980;2022-12-13T11:56:41;80.00;;;34.13;;
52708;SDS011;38606;52.986;6.980;2022-12-13T12:01:41;74.05;;;32.33;;
52708;SDS011;38606;52.986;6.980;2022-12-13T12:07:16;70.60;;;32.03;;
52708;SDS011;38606;52.986;6.980;2022-12-13T12:12:37;74.32;;;31.90;;
52708;SDS011;38606;52.986;6.980;2022-12-13T12:15:13;65.47;;;30.42;;
52708;SDS011;38606;52.986;6.980;2022-12-13T12:17:47;67.32;;;31.83;;
52708;SDS011;38606;52.986;6.980;2022-12-13T12:20:14;72.35;;;31.75;;
52708;SDS011;38606;52.986;6.980;2022-12-13T12:22:52;67.65;;;30.45;;
52708;SDS011;38606;52.986;6.980;2022-12-13T12:25:39;71.57;;;31.65;;
52708;SDS011;38606;52.986;6.980;2022-12-13T12:41:31;64.18;;;30.17;;
52708;SDS011;38606;52.986;6.980;2022-12-13T12:44:03;63.17;;;29.05;;
52708;SDS011;38606;52.986;6.980;2022-12-13T12:58:28;69.00;;;31.65;;
52708;SDS011;38606;52.986;6.980;2022-12-13T13:03:26;66.05;;;33.80;;
52708;SDS011;38606;52.986;6.980;2022-12-13T13:11:12;64.60;;;32.53;;
52708;SDS011;38606;52.986;6.980;2022-12-13T13:13:44;65.10;;;32.67;;
52708;SDS011;38606;52.986;6.980;2022-12-13T13:19:02;57.88;;;30.20;;
52708;SDS011;38606;52.986;6.980;2022-12-13T13:21:32;58.58;;;29.58;;
52708;SDS011;38606;52.986;6.980;2022-12-13T13:26:41;61.20;;;29.70;;
52708;SDS011;38606;52.986;6.980;2022-12-13T13:31:55;56.60;;;28.70;;
52708;SDS011;38606;52.986;6.980;2022-12-13T13:34:33;57.28;;;26.83;;
52708;SDS011;38606;52.986;6.980;2022-12-13T13:37:11;56.25;;;27.50;;
52708;SDS011;38606;52.986;6.980;2022-12-13T14:15:22;53.92;;;25.48;;
52708;SDS011;38606;52.986;6.980;2022-12-13T14:29:42;58.80;;;27.10;;
52708;SDS011;38606;52.986;6.980;2022-12-13T14:32:17;54.38;;;26.63;;
52708;SDS011;38606;52.986;6.980;2022-12-13T14:34:48;49.80;;;25.63;;
52708;SDS011;38606;52.986;6.980;2022-12-13T14:37:25;51.33;;;25.52;;
52708;SDS011;38606;52.986;6.980;2022-12-13T14:39:51;53.05;;;27.25;;
52708;SDS011;38606;52.986;6.980;2022-12-13T14:42:22;52.95;;;26.55;;
52708;SDS011;38606;52.986;6.980;2022-12-13T14:44:50;50.03;;;24.58;;
52708;SDS011;38606;52.986;6.980;2022-12-13T14:47:16;53.10;;;25.65;;
52708;SDS011;38606;52.986;6.980;2022-12-13T14:49:43;53.55;;;25.88;;
52708;SDS011;38606;52.986;6.980;2022-12-13T14:57:19;47.45;;;23.50;;
52708;SDS011;38606;52.986;6.980;2022-12-13T14:59:47;51.75;;;27.45;;
52708;SDS011;38606;52.986;6.980;2022-12-13T15:02:18;52.50;;;25.90;;
52708;SDS011;38606;52.986;6.980;2022-12-13T15:04:47;46.15;;;24.52;;
52708;SDS011;38606;52.986;6.980;2022-12-13T15:07:19;50.83;;;25.65;;
52708;SDS011;38606;52.986;6.980;2022-12-13T15:09:56;51.53;;;26.63;;
52708;SDS011;38606;52.986;6.980;2022-12-13T15:12:25;50.47;;;26.27;;
52708;SDS011;38606;52.986;6.980;2022-12-13T15:14:58;53.90;;;26.55;;
52708;SDS011;38606;52.986;6.980;2022-12-13T15:19:52;55.88;;;28.08;;
52708;SDS011;38606;52.986;6.980;2022-12-13T15:22:18;57.25;;;27.23;;
52708;SDS011;38606;52.986;6.980;2022-12-13T15:24:44;63.33;;;30.13;;
52708;SDS011;38606;52.986;6.980;2022-12-13T15:27:12;72.75;;;32.97;;
52708;SDS011;38606;52.986;6.980;2022-12-13T15:29:40;78.25;;;33.22;;
52708;SDS011;38606;52.986;6.980;2022-12-13T15:32:12;77.88;;;36.08;;
52708;SDS011;38606;52.986;6.980;2022-12-13T15:34:43;67.10;;;33.00;;
52708;SDS011;38606;52.986;6.980;2022-12-13T15:39:39;72.55;;;33.00;;
52708;SDS011;38606;52.986;6.980;2022-12-13T15:42:51;66.88;;;31.88;;
52708;SDS011;38606;52.986;6.980;2022-12-13T15:45:00;62.58;;;29.88;;
52708;SDS011;38606;52.986;6.980;2022-12-13T15:47:29;61.85;;;29.73;;
52708;SDS011;38606;52.986;6.980;2022-12-13T15:50:00;60.45;;;30.02;;
52708;SDS011;38606;52.986;6.980;2022-12-13T15:52:30;57.28;;;28.55;;
52708;SDS011;38606;52.986;6.980;2022-12-13T15:57:47;61.83;;;28.80;;
52708;SDS011;38606;52.986;6.980;2022-12-13T16:02:46;62.33;;;27.90;;
52708;SDS011;38606;52.986;6.980;2022-12-13T16:05:31;60.45;;;27.95;;
52708;SDS011;38606;52.986;6.980;2022-12-13T16:07:59;59.83;;;27.50;;
52708;SDS011;38606;52.986;6.980;2022-12-13T16:10:30;55.85;;;27.42;;
52708;SDS011;38606;52.986;6.980;2022-12-13T16:13:00;59.00;;;28.10;;
52708;SDS011;38606;52.986;6.980;2022-12-13T16:15:29;61.45;;;28.63;;
52708;SDS011;38606;52.986;6.980;2022-12-13T16:18:10;61.55;;;29.33;;
52708;SDS011;38606;52.986;6.980;2022-12-13T16:20:40;62.58;;;29.38;;
52708;SDS011;38606;52.986;6.980;2022-12-13T16:23:08;68.35;;;29.30;;
52708;SDS011;38606;52.986;6.980;2022-12-13T16:25:36;58.25;;;28.73;;
52708;SDS011;38606;52.986;6.980;2022-12-13T16:28:03;66.80;;;30.70;;
52708;SDS011;38606;52.986;6.980;2022-12-13T16:33:34;60.20;;;28.83;;
52708;SDS011;38606;52.986;6.980;2022-12-13T16:36:00;65.38;;;29.35;;
52708;SDS011;38606;52.986;6.980;2022-12-13T16:38:26;64.28;;;28.88;;
52708;SDS011;38606;52.986;6.980;2022-12-13T16:40:52;61.50;;;28.55;;
52708;SDS011;38606;52.986;6.980;2022-12-13T16:43:21;69.13;;;31.85;;
52708;SDS011;38606;52.986;6.980;2022-12-13T16:45:53;63.85;;;28.92;;
52708;SDS011;38606;52.986;6.980;2022-12-13T16:48:20;61.60;;;29.65;;
52708;SDS011;38606;52.986;6.980;2022-12-13T16:50:48;64.65;;;30.02;;
52708;SDS011;38606;52.986;6.980;2022-12-13T16:53:15;73.80;;;32.10;;
52708;SDS011;38606;52.986;6.980;2022-12-13T16:55:41;68.78;;;32.13;;
52708;SDS011;38606;52.986;6.980;2022-12-13T16:58:14;71.38;;;31.33;;
52708;SDS011;38606;52.986;6.980;2022-12-13T17:00:41;69.65;;;30.98;;
52708;SDS011;38606;52.986;6.980;2022-12-13T17:03:09;67.20;;;32.83;;
52708;SDS011;38606;52.986;6.980;2022-12-13T17:05:36;72.20;;;32.47;;
52708;SDS011;38606;52.986;6.980;2022-12-13T17:08:02;64.72;;;31.80;;
52708;SDS011;38606;52.986;6.980;2022-12-13T17:10:29;71.63;;;32.70;;
52708;SDS011;38606;52.986;6.980;2022-12-13T17:12:56;70.15;;;30.50;;
52708;SDS011;38606;52.986;6.980;2022-12-13T17:15:22;70.57;;;32.42;;
52708;SDS011;38606;52.986;6.980;2022-12-13T17:17:48;76.95;;;31.52;;
52708;SDS011;38606;52.986;6.980;2022-12-13T17:20:15;65.50;;;30.35;;